Time;durP1;ratioP1;P1;durP2;ratioP2;P2;SDS_P1;SDS_P2;PMS_P1;PMS_P2;Temp;Humidity;BMP_temperature;BMP_pressure;BME280_temperature;BME280_humidity;BME280_pressure;Samples;Min_cycle;Max_cycle;Signal;HPM_P1;HPM_P2
2021/04/10 00:00:18;;;;;;;4.70;2.88;;;;;;;8.09;56.33;98662.78;5071841;28;20495;-81
2021/04/10 00:02:44;;;;;;;5.40;2.53;;;;;;;8.02;56.37;98669.13;5072472;28;20052;-82
2021/04/10 00:05:13;;;;;;;8.57;2.47;;;;;;;7.94;56.39;98665.44;5070300;28;20094;-82
2021/04/10 00:07:43;;;;;;;5.63;2.42;;;;;;;7.73;56.63;98651.72;5071031;28;20052;-82
2021/04/10 00:10:11;;;;;;;3.57;2.60;;;;;;;7.82;56.28;98660.63;5069882;28;20117;-82
2021/04/10 00:12:38;;;;;;;5.18;2.47;;;;;;;7.92;54.84;98650.41;5071860;28;20485;-82
2021/04/10 00:15:07;;;;;;;4.18;2.17;;;;;;;8.14;54.10;98668.53;5068468;28;20044;-82
2021/04/10 00:17:34;;;;;;;12.18;3.50;;;;;;;8.13;53.94;98642.47;5052195;28;20048;-82
2021/04/10 00:20:00;;;;;;;7.90;2.63;;;;;;;8.32;53.22;98656.50;5065592;28;20401;-82
2021/04/10 00:22:27;;;;;;;8.48;2.40;;;;;;;8.43;52.83;98657.94;5071292;28;20056;-82
2021/04/10 00:24:53;;;;;;;3.10;2.38;;;;;;;8.32;53.11;98626.72;5070746;28;20049;-82
2021/04/10 00:27:19;;;;;;;5.78;2.50;;;;;;;8.43;52.55;98638.97;5070672;28;20441;-81
2021/04/10 00:29:48;;;;;;;7.68;2.38;;;;;;;8.43;53.24;98653.38;5072116;28;20044;-82
2021/04/10 00:32:16;;;;;;;6.30;2.80;;;;;;;8.45;52.50;98647.81;5071778;28;20554;-81
2021/04/10 00:34:42;;;;;;;7.63;2.20;;;;;;;8.48;53.18;98655.56;5070778;28;20079;-82
2021/04/10 00:37:08;;;;;;;6.35;2.50;;;;;;;8.49;53.04;98646.38;5070251;28;20601;-82
2021/04/10 00:39:35;;;;;;;7.75;2.35;;;;;;;8.49;53.08;98655.38;5071214;28;20049;-82
2021/04/10 00:42:01;;;;;;;4.22;2.47;;;;;;;8.52;53.91;98666.84;5071114;28;20044;-82
2021/04/10 00:44:27;;;;;;;8.10;2.20;;;;;;;8.52;54.53;98667.72;5070832;28;20052;-82
2021/04/10 00:46:54;;;;;;;5.18;1.98;;;;;;;8.69;53.60;98665.69;5070973;28;20052;-82
2021/04/10 00:49:20;;;;;;;4.53;2.15;;;;;;;8.80;53.74;98667.09;5068390;28;20492;-82
2021/04/10 00:51:47;;;;;;;7.55;2.85;;;;;;;8.83;53.86;98656.72;5071571;28;20053;-82
2021/04/10 00:54:14;;;;;;;9.90;2.35;;;;;;;8.90;53.46;98664.09;5067670;28;20041;-82
2021/04/10 00:56:41;;;;;;;6.30;1.88;;;;;;;8.91;53.17;98654.94;5070262;28;20048;-82
2021/04/10 00:59:07;;;;;;;3.17;1.83;;;;;;;8.92;53.09;98645.78;5070569;28;20097;-82
2021/04/10 01:01:33;;;;;;;5.05;2.00;;;;;;;9.09;52.60;98644.56;5071003;28;20044;-82
2021/04/10 01:04:00;;;;;;;6.25;1.98;;;;;;;9.01;52.80;98631.09;5070798;28;20049;-82
2021/04/10 01:06:30;;;;;;;5.68;1.95;;;;;;;9.28;52.47;98650.44;5066299;28;20045;-82
2021/04/10 01:08:56;;;;;;;4.28;1.67;;;;;;;9.27;52.47;98646.03;5071105;28;20044;-82
2021/04/10 01:11:33;;;;;;;5.97;2.03;;;;;;;9.33;52.65;98637.13;5060770;28;20091;-82
2021/04/10 01:14:04;;;;;;;3.08;1.90;;;;;;;9.49;51.61;98647.78;5051404;28;20056;-82
2021/04/10 01:16:34;;;;;;;3.83;1.65;;;;;;;9.46;52.20;98622.91;5069709;28;20044;-81
2021/04/10 01:19:14;;;;;;;4.75;2.20;;;;;;;9.52;52.25;98622.97;5070790;28;20049;-82
2021/04/10 01:21:44;;;;;;;7.28;2.05;;;;;;;9.51;52.29;98609.59;5069870;28;20048;-82
2021/04/10 01:24:33;;;;;;;3.78;1.67;;;;;;;9.60;52.22;98630.16;5069759;28;20674;-81
2021/04/10 01:27:25;;;;;;;8.55;1.90;;;;;;;9.62;52.40;98625.41;5067672;28;20101;-82
2021/04/10 01:29:57;;;;;;;5.25;1.58;;;;;;;9.65;52.42;98625.00;5067191;28;20539;-81
2021/04/10 01:32:27;;;;;;;3.35;1.35;;;;;;;9.53;52.48;98611.09;5068859;28;20052;-82
2021/04/10 01:35:00;;;;;;;4.30;1.45;;;;;;;9.57;53.10;98628.69;5069747;28;20098;-82
2021/04/10 01:37:28;;;;;;;5.50;1.60;;;;;;;9.58;52.96;98618.66;5069721;28;20463;-82
2021/04/10 01:39:56;;;;;;;6.75;1.95;;;;;;;9.44;53.01;98616.81;5069279;28;20284;-82
2021/04/10 01:42:25;;;;;;;6.38;1.77;;;;;;;9.47;53.48;98621.84;5064504;28;20098;-81
2021/04/10 01:44:54;;;;;;;7.03;2.00;;;;;;;9.48;53.21;98623.53;5065374;28;20045;-82
2021/04/10 01:47:20;;;;;;;9.55;2.10;;;;;;;9.53;52.54;98621.13;5070170;28;20048;-81
2021/04/10 01:49:48;;;;;;;4.25;1.98;;;;;;;9.53;52.46;98626.53;5069142;28;20048;-82
2021/04/10 01:52:14;;;;;;;4.72;1.90;;;;;;;9.47;52.99;98624.56;5070024;28;20052;-82
2021/04/10 01:54:42;;;;;;;5.35;1.85;;;;;;;9.54;52.16;98634.50;5069167;28;20089;-82
2021/04/10 01:57:09;;;;;;;7.88;1.73;;;;;;;9.47;51.78;98611.00;5065288;28;20047;-82
2021/04/10 01:59:36;;;;;;;3.55;1.70;;;;;;;9.55;52.51;98633.44;5067720;28;20162;-82
2021/04/10 02:02:04;;;;;;;4.75;1.70;;;;;;;9.59;52.45;98625.78;5064643;28;20052;-82
2021/04/10 02:04:33;;;;;;;5.60;1.65;;;;;;;9.56;51.32;98615.31;5070084;28;20048;-82
2021/04/10 02:07:01;;;;;;;10.93;1.60;;;;;;;9.57;52.36;98606.97;5063707;28;20102;-82
2021/04/10 02:09:28;;;;;;;2.88;1.70;;;;;;;9.55;52.85;98617.16;5070634;28;20059;-82
2021/04/10 02:11:55;;;;;;;6.82;2.35;;;;;;;9.42;53.43;98599.91;5067558;28;20114;-82
2021/04/10 02:14:22;;;;;;;4.72;1.95;;;;;;;9.56;52.68;98609.88;5069724;28;20057;-82
2021/04/10 02:30:17;;;;;;;5.25;1.63;;;;;;;9.43;55.23;98617.88;5050878;28;20055;-82
2021/04/10 02:32:49;;;;;;;3.92;1.10;;;;;;;9.27;55.22;98608.91;5061380;28;20048;-82
2021/04/10 02:35:22;;;;;;;2.03;1.08;;;;;;;9.46;53.62;98614.78;5065052;28;20370;-81
2021/04/10 02:37:51;;;;;;;2.17;1.17;;;;;;;9.34;53.75;98598.97;5052695;28;20425;-82
2021/04/10 02:40:19;;;;;;;5.22;1.30;;;;;;;9.47;53.37;98609.16;5069143;28;20048;-82
2021/04/10 02:42:48;;;;;;;5.97;1.70;;;;;;;9.58;53.19;98615.94;5069576;28;20051;-82
2021/04/10 02:45:21;;;;;;;3.95;1.30;;;;;;;9.48;53.30;98602.66;5065616;28;20056;-82
2021/04/10 02:47:49;;;;;;;1.45;0.90;;;;;;;9.53;53.89;98615.69;5068318;28;20045;-82
2021/04/10 02:50:20;;;;;;;4.13;1.20;;;;;;;9.57;53.58;98609.69;5068027;28;20045;-82
2021/04/10 02:52:49;;;;;;;3.40;1.40;;;;;;;9.55;53.84;98605.47;5066323;28;20045;-82
2021/04/10 02:55:19;;;;;;;3.08;1.40;;;;;;;9.56;53.30;98609.88;5072918;28;20044;-82
2021/04/10 02:57:47;;;;;;;3.58;1.17;;;;;;;9.56;53.00;98618.84;5070280;28;20059;-82
2021/04/10 03:00:18;;;;;;;4.70;1.73;;;;;;;9.63;53.42;98610.75;5073477;28;20052;-82
2021/04/10 03:02:46;;;;;;;3.10;1.10;;;;;;;9.52;53.42;98609.41;5072562;28;20052;-82
2021/04/10 03:05:14;;;;;;;2.70;1.20;;;;;;;9.66;53.37;98610.38;5070257;28;20055;-82
2021/04/10 03:07:45;;;;;;;2.97;1.20;;;;;;;9.61;53.63;98612.84;5069054;28;20094;-82
2021/04/10 03:10:13;;;;;;;3.22;1.33;;;;;;;9.67;52.73;98617.50;5065048;28;20069;-82
2021/04/10 03:12:40;;;;;;;1.95;0.98;;;;;;;9.61;53.13;98606.59;5072892;28;20037;-82
2021/04/10 03:15:08;;;;;;;3.83;1.30;;;;;;;9.61;52.39;98603.88;5061655;28;20045;-82
2021/04/10 03:17:39;;;;;;;1.13;0.93;;;;;;;9.74;52.63;98620.31;5072987;28;20098;-81
2021/04/10 03:20:08;;;;;;;3.78;1.65;;;;;;;9.67;52.68;98613.97;5069020;28;20067;-82
2021/04/10 03:22:34;;;;;;;5.97;1.25;;;;;;;9.77;52.80;98622.63;5070821;28;20106;-81
2021/04/10 03:25:01;;;;;;;9.07;0.90;;;;;;;9.79;51.74;98623.25;5061496;28;20084;-82
2021/04/10 03:27:27;;;;;;;2.83;1.20;;;;;;;9.85;51.64;98622.50;5063206;28;20056;-82
2021/04/10 03:29:54;;;;;;;2.63;0.93;;;;;;;9.70;51.86;98617.13;5066636;28;20103;-82
2021/04/10 03:32:23;;;;;;;3.03;1.10;;;;;;;9.91;51.58;98639.88;5056825;28;20106;-82
2021/04/10 03:34:51;;;;;;;6.50;1.40;;;;;;;9.82;51.43;98622.03;5071253;28;20086;-82
2021/04/10 03:37:17;;;;;;;2.83;1.15;;;;;;;9.80;52.45;98626.81;5072180;28;20049;-82
2021/04/10 03:39:43;;;;;;;5.72;1.30;;;;;;;9.77;51.26;98625.34;5072325;28;20040;-82
2021/04/10 03:42:10;;;;;;;4.65;1.20;;;;;;;9.79;51.40;98631.41;5068959;28;20048;-81
2021/04/10 03:44:37;;;;;;;12.00;1.27;;;;;;;9.90;50.45;98630.88;5066637;28;20040;-82
2021/04/10 03:47:03;;;;;;;2.75;1.38;;;;;;;9.94;50.70;98627.81;5070778;28;20063;-82
2021/04/10 03:49:29;;;;;;;3.63;1.30;;;;;;;10.00;50.91;98635.19;5059518;28;20056;-82
2021/04/10 03:51:57;;;;;;;3.15;1.17;;;;;;;10.03;50.67;98632.91;5072359;28;20053;-81
2021/04/10 03:54:23;;;;;;;6.03;1.30;;;;;;;10.05;51.63;98636.25;5071100;28;20048;-82
2021/04/10 03:56:50;;;;;;;2.22;0.90;;;;;;;9.99;51.34;98639.75;5072464;28;20067;-81
2021/04/10 03:59:16;;;;;;;4.88;1.20;;;;;;;10.03;51.73;98649.19;5062322;28;20041;-82
2021/04/10 04:01:42;;;;;;;4.15;1.27;;;;;;;9.93;52.87;98629.66;5068898;28;20110;-81
2021/04/10 04:04:08;;;;;;;3.55;1.35;;;;;;;10.01;53.80;98644.97;5063468;28;20048;-81
2021/04/10 04:06:35;;;;;;;4.13;0.80;;;;;;;9.98;53.15;98648.94;5069807;28;20048;-81
2021/04/10 04:09:02;;;;;;;4.25;1.20;;;;;;;9.96;54.16;98648.28;5069848;28;20079;-82
2021/04/10 04:11:28;;;;;;;7.22;1.13;;;;;;;10.02;54.38;98655.66;5062004;28;20041;-82
2021/04/10 04:13:54;;;;;;;3.25;1.20;;;;;;;10.02;54.53;98654.81;5072078;28;20455;-81
2021/04/10 04:16:22;;;;;;;3.47;1.58;;;;;;;10.04;54.91;98661.75;5061361;28;20098;-82
2021/04/10 04:18:49;;;;;;;4.20;1.02;;;;;;;9.94;55.83;98658.50;5052571;28;20061;-81
2021/04/10 04:21:15;;;;;;;4.20;1.13;;;;;;;9.91;56.38;98662.44;5059501;28;20040;-82
2021/04/10 04:23:42;;;;;;;2.85;1.38;;;;;;;9.92;56.22;98674.13;5058818;28;20049;-81
2021/04/10 04:26:09;;;;;;;5.30;0.98;;;;;;;9.83;56.73;98659.00;5069494;28;20211;-82
2021/04/10 04:28:35;;;;;;;4.22;1.55;;;;;;;9.82;57.30;98660.88;5071760;28;20382;-82
2021/04/10 04:31:01;;;;;;;3.28;1.25;;;;;;;9.91;57.25;98683.34;5065120;28;20053;-82
2021/04/10 04:33:27;;;;;;;6.78;1.45;;;;;;;9.91;57.58;98672.47;5070723;28;20477;-82
2021/04/10 04:35:54;;;;;;;2.17;1.27;;;;;;;9.84;58.37;98666.94;5071147;28;20051;-81
2021/04/10 04:38:20;;;;;;;4.10;1.40;;;;;;;9.92;58.64;98679.56;5070779;28;20052;-81
2021/04/10 04:40:46;;;;;;;1.10;0.80;;;;;;;9.82;58.70;98670.91;5060486;28;20414;-81
2021/04/10 04:43:13;;;;;;;2.70;1.10;;;;;;;9.90;58.88;98684.34;5061761;28;20045;-81
2021/04/10 04:45:40;;;;;;;3.25;1.38;;;;;;;9.81;59.15;98691.78;5052849;28;20057;-81
2021/04/10 04:48:07;;;;;;;2.83;1.20;;;;;;;9.82;59.61;98690.75;5070634;28;20040;-81
2021/04/10 04:50:33;;;;;;;8.23;1.20;;;;;;;9.80;59.39;98709.13;5062343;28;20048;-81
2021/04/10 04:52:59;;;;;;;5.47;1.20;;;;;;;9.76;59.59;98704.25;5070889;28;20052;-82
2021/04/10 04:55:28;;;;;;;3.97;0.90;;;;;;;9.64;60.35;98693.88;5069539;28;20040;-82
2021/04/10 04:57:54;;;;;;;7.18;1.25;;;;;;;9.77;59.89;98714.94;5058134;28;20048;-82
2021/04/10 05:00:22;;;;;;;5.00;1.15;;;;;;;9.75;59.75;98711.53;5065289;28;20041;-81
2021/04/10 05:02:50;;;;;;;5.10;1.23;;;;;;;9.76;59.94;98720.53;5070719;28;20663;-82
2021/04/10 05:05:16;;;;;;;1.40;0.88;;;;;;;9.65;59.50;98711.00;5065886;28;20049;-81
2021/04/10 05:07:43;;;;;;;3.83;1.13;;;;;;;9.70;59.57;98731.13;5051267;28;20461;-81
2021/04/10 05:10:10;;;;;;;7.20;1.65;;;;;;;9.57;59.86;98715.53;5053954;28;20056;-81
2021/04/10 05:12:36;;;;;;;2.60;0.88;;;;;;;9.67;60.44;98720.63;5069213;28;20072;-81
2021/04/10 05:15:03;;;;;;;2.83;0.90;;;;;;;9.56;59.94;98727.41;5070188;28;20110;-81
2021/04/10 05:17:32;;;;;;;7.93;1.40;;;;;;;9.57;59.62;98729.09;5067856;28;20055;-81
2021/04/10 05:19:58;;;;;;;1.83;1.20;;;;;;;9.70;59.57;98743.84;5070798;28;20055;-80
2021/04/10 05:22:25;;;;;;;2.58;1.15;;;;;;;9.68;59.40;98737.75;5063524;28;20493;-81
2021/04/10 05:24:51;;;;;;;1.17;0.90;;;;;;;9.58;59.45;98732.63;5069969;28;20416;-81
2021/04/10 05:27:17;;;;;;;3.00;1.00;;;;;;;9.56;59.31;98737.41;5068893;28;20575;-81
2021/04/10 05:29:43;;;;;;;4.20;1.40;;;;;;;9.67;59.47;98746.94;5070337;28;20448;-81
2021/04/10 05:32:10;;;;;;;2.33;1.10;;;;;;;9.68;58.77;98759.47;5069104;28;20110;-81
2021/04/10 05:34:37;;;;;;;4.97;1.30;;;;;;;9.65;59.63;98758.00;5068723;28;20045;-81
2021/04/10 05:37:03;;;;;;;9.32;0.90;;;;;;;9.52;58.85;98734.22;5070488;28;20124;-82
2021/04/10 05:39:29;;;;;;;2.17;0.90;;;;;;;9.64;58.82;98759.00;5069735;28;20063;-81
2021/04/10 05:41:56;;;;;;;3.78;1.23;;;;;;;9.67;59.14;98760.53;5069152;28;20440;-81
2021/04/10 05:44:22;;;;;;;1.35;0.82;;;;;;;9.62;59.17;98752.09;5069071;28;20055;-81
2021/04/10 05:46:48;;;;;;;3.72;1.13;;;;;;;9.56;59.65;98759.13;5067559;28;20052;-81
2021/04/10 05:49:15;;;;;;;2.40;0.93;;;;;;;9.61;59.32;98769.41;5050709;28;20060;-81
2021/04/10 05:51:42;;;;;;;3.33;1.17;;;;;;;9.62;59.43;98765.66;5055324;28;20060;-81
2021/04/10 05:54:08;;;;;;;3.67;1.08;;;;;;;9.66;59.01;98772.41;5067355;28;20055;-81
2021/04/10 05:56:35;;;;;;;5.30;0.90;;;;;;;9.68;59.10;98770.31;5069736;28;20057;-81
2021/04/10 05:59:01;;;;;;;7.22;1.23;;;;;;;9.62;59.06;98765.66;5068329;28;20063;-81
2021/04/10 06:01:28;;;;;;;2.63;1.23;;;;;;;9.76;59.27;98777.56;5069175;28;20097;-81
2021/04/10 06:03:55;;;;;;;3.88;1.10;;;;;;;9.71;59.07;98776.25;5069648;28;20059;-81
2021/04/10 06:06:22;;;;;;;1.65;1.15;;;;;;;9.77;58.69;98792.78;5069597;28;20059;-81
2021/04/10 06:08:52;;;;;;;4.25;1.10;;;;;;;9.79;58.71;98788.03;5068652;28;20048;-81
2021/04/10 06:11:18;;;;;;;;;;;;;;;9.80;59.09;98792.41;5069329;28;20052;-81
2021/04/10 06:13:47;;;;;;;1.80;1.00;;;;;;;9.84;58.93;98796.44;5067194;28;19928;-82
2021/04/10 06:16:14;;;;;;;1.35;0.85;;;;;;;9.74;59.65;98794.88;5071836;28;20405;-81
2021/04/10 06:18:40;;;;;;;1.48;1.10;;;;;;;9.70;59.31;98798.16;5070892;28;20041;-82
2021/04/10 06:21:07;;;;;;;7.10;1.27;;;;;;;9.69;59.99;98789.13;5069974;28;20048;-81
2021/04/10 06:23:33;;;;;;;3.60;1.13;;;;;;;9.80;58.99;98808.69;5070473;28;20051;-82
2021/04/10 06:26:01;;;;;;;2.85;1.17;;;;;;;9.71;59.55;98805.22;5057633;28;20067;-82
2021/04/10 06:28:27;;;;;;;2.40;1.30;;;;;;;9.78;60.25;98806.16;5072356;28;20041;-82
2021/04/10 06:30:53;;;;;;;3.42;1.00;;;;;;;9.86;59.66;98816.09;5070781;28;20389;-78
2021/04/10 06:33:23;;;;;;;2.53;1.00;;;;;;;9.88;60.35;98822.19;5073530;28;20048;-79
2021/04/10 06:35:49;;;;;;;4.82;0.80;;;;;;;9.81;59.12;98818.53;5072903;28;20056;-82
2021/04/10 06:38:15;;;;;;;2.35;1.15;;;;;;;9.72;59.54;98812.34;5073913;28;20056;-82
2021/04/10 06:40:44;;;;;;;2.03;1.15;;;;;;;9.70;59.58;98800.84;5067109;28;20555;-82
2021/04/10 06:43:12;;;;;;;1.15;0.95;;;;;;;9.80;59.83;98816.84;5062176;28;20535;-82
2021/04/10 06:45:39;;;;;;;3.30;1.10;;;;;;;9.79;60.29;98826.03;5072379;28;20052;-82
2021/04/10 06:48:13;;;;;;;3.20;1.00;;;;;;;9.90;60.19;98823.66;5073137;28;20052;-82
2021/04/10 06:50:40;;;;;;;2.08;0.82;;;;;;;9.81;60.05;98821.25;5073024;28;20056;-82
2021/04/10 06:53:13;;;;;;;2.72;1.35;;;;;;;9.80;59.50;98828.56;5069668;28;20071;-82
2021/04/10 06:55:44;;;;;;;3.05;1.20;;;;;;;9.92;59.82;98832.47;5073034;28;20049;-80
2021/04/10 06:58:18;;;;;;;2.72;0.98;;;;;;;9.91;59.22;98828.06;5069317;28;20045;-80
2021/04/10 07:00:44;;;;;;;2.40;1.13;;;;;;;9.92;58.76;98818.91;5058090;28;20117;-79
2021/04/10 07:03:13;;;;;;;2.58;0.73;;;;;;;10.17;59.71;98834.03;5072182;28;20048;-80
2021/04/10 07:05:40;;;;;;;1.45;0.80;;;;;;;10.22;59.19;98829.72;5069876;28;20056;-81
2021/04/10 07:08:11;;;;;;;1.85;0.95;;;;;;;10.16;58.25;98833.19;5066780;28;20036;-79
2021/04/10 07:10:38;;;;;;;4.88;1.60;;;;;;;10.37;60.13;98837.88;5072060;28;20045;-82
2021/04/10 07:13:08;;;;;;;2.22;1.17;;;;;;;10.44;57.97;98838.75;5068894;28;20047;-82
2021/04/10 07:15:42;;;;;;;1.67;1.25;;;;;;;10.42;58.77;98829.13;5063119;28;20076;-83
2021/04/10 07:18:08;;;;;;;8.15;1.98;;;;;;;10.58;58.95;98847.94;5073147;28;20135;-82
2021/04/10 07:20:37;;;;;;;3.40;0.80;;;;;;;10.48;58.17;98832.94;5053318;28;20057;-82
2021/04/10 07:23:06;;;;;;;1.83;1.15;;;;;;;10.44;57.92;98832.50;5072533;28;20052;-82
2021/04/10 07:25:34;;;;;;;1.33;0.90;;;;;;;10.53;57.85;98835.94;5058259;28;20045;-82
2021/04/10 07:28:26;;;;;;;2.33;1.30;;;;;;;10.48;57.95;98841.09;5064382;28;20056;-82
2021/04/10 07:30:59;;;;;;;3.60;1.00;;;;;;;10.37;57.95;98827.00;5066520;28;20049;-82
2021/04/10 07:33:26;;;;;;;3.25;1.15;;;;;;;10.30;57.69;98838.75;5069665;28;20056;-82
2021/04/10 07:36:01;;;;;;;2.55;1.02;;;;;;;10.34;57.41;98840.09;5072284;28;20079;-82
2021/04/10 07:38:29;;;;;;;2.13;1.00;;;;;;;10.20;57.55;98823.63;5055327;28;20094;-82
2021/04/10 07:40:57;;;;;;;7.43;1.45;;;;;;;10.36;58.69;98849.75;5057370;28;20057;-83
2021/04/10 07:43:24;;;;;;;5.90;2.00;;;;;;;10.19;58.23;98840.97;5074730;28;20056;-82
2021/04/10 07:45:51;;;;;;;2.60;1.08;;;;;;;10.13;58.40;98836.28;5073007;28;20158;-82
2021/04/10 07:48:19;;;;;;;2.13;0.93;;;;;;;10.27;59.68;98859.03;5070898;28;20056;-81
2021/04/10 07:50:46;;;;;;;3.25;1.13;;;;;;;10.08;58.97;98846.88;5070773;28;20049;-82
2021/04/10 07:53:24;;;;;;;2.20;1.38;;;;;;;10.09;59.56;98832.28;5061546;28;20075;-82
2021/04/10 07:55:52;;;;;;;5.53;1.00;;;;;;;10.16;59.55;98859.50;5073853;28;20113;-82
2021/04/10 07:58:27;;;;;;;1.70;1.20;;;;;;;10.23;59.50;98871.31;5074587;28;20053;-81
2021/04/10 08:00:55;;;;;;;2.90;0.90;;;;;;;10.07;59.50;98858.75;5071285;28;20072;-82
2021/04/10 08:03:24;;;;;;;1.27;1.13;;;;;;;10.09;59.99;98854.84;5065805;28;20485;-82
2021/04/10 08:05:51;;;;;;;4.60;1.20;;;;;;;10.17;59.81;98862.03;5068889;28;20055;-81
2021/04/10 08:08:24;;;;;;;1.63;1.00;;;;;;;10.13;60.35;98868.03;5071849;28;20044;-81
2021/04/10 08:11:01;;;;;;;3.97;1.23;;;;;;;10.08;59.13;98863.16;5057785;28;20052;-81
2021/04/10 08:13:28;;;;;;;5.97;0.90;;;;;;;10.20;59.47;98882.56;5064131;28;20053;-78
2021/04/10 08:16:10;;;;;;;1.80;0.90;;;;;;;10.14;59.19;98884.13;5071457;28;20052;-82
2021/04/10 08:18:45;;;;;;;0.90;0.75;;;;;;;10.18;59.60;98888.16;5071551;28;20052;-82
2021/04/10 08:21:13;;;;;;;1.55;1.00;;;;;;;10.16;59.15;98868.50;5073610;28;20054;-81
2021/04/10 08:23:40;;;;;;;4.10;1.35;;;;;;;10.24;59.39;98894.72;5073833;28;20090;-82
2021/04/10 08:26:08;;;;;;;1.67;0.93;;;;;;;10.17;59.13;98875.59;5066751;28;20040;-82
2021/04/10 08:28:36;;;;;;;3.90;1.10;;;;;;;10.23;58.89;98891.16;5070430;28;20516;-81
2021/04/10 08:31:05;;;;;;;5.20;1.25;;;;;;;10.17;59.70;98891.06;5071654;28;20526;-82
2021/04/10 08:33:56;;;;;;;2.67;1.20;;;;;;;10.03;61.12;98871.88;5071310;28;20102;-85
2021/04/10 08:36:23;;;;;;;2.83;0.98;;;;;;;10.16;60.41;98892.09;5064988;28;20045;-81
2021/04/10 08:38:50;;;;;;;6.03;1.20;;;;;;;10.10;60.32;98885.53;5070866;28;20057;-82
2021/04/10 08:41:16;;;;;;;4.35;1.20;;;;;;;10.14;60.31;98889.56;5070542;28;20056;-81
2021/04/10 08:43:49;;;;;;;2.88;1.38;;;;;;;10.03;59.67;98861.03;5063917;28;20048;-81
2021/04/10 08:46:22;;;;;;;2.92;1.42;;;;;;;10.06;60.93;98876.09;5059115;28;20060;-82
2021/04/10 08:48:51;;;;;;;4.13;1.30;;;;;;;10.22;63.12;98894.06;5066565;28;20044;-82
2021/04/10 08:51:18;;;;;;;2.40;1.48;;;;;;;10.14;63.51;98895.00;5070962;28;20051;-83
2021/04/10 08:53:49;;;;;;;2.33;1.30;;;;;;;10.10;64.16;98910.00;5062911;28;20102;-83
2021/04/10 08:56:20;;;;;;;2.92;1.33;;;;;;;9.95;63.86;98879.28;5069157;28;20423;-82
2021/04/10 08:58:48;;;;;;;2.00;1.23;;;;;;;10.04;64.29;98905.31;5070670;28;20056;-82
2021/04/10 09:01:18;;;;;;;1.77;1.20;;;;;;;10.02;64.12;98904.66;5064877;28;20516;-83
2021/04/10 09:03:54;;;;;;;4.35;1.13;;;;;;;9.96;64.40;98883.69;5064514;28;20059;-82
2021/04/10 09:06:49;;;;;;;2.35;1.30;;;;;;;10.04;64.02;98889.88;5069000;28;20072;-82
2021/04/10 09:09:33;;;;;;;5.28;1.50;;;;;;;10.21;64.07;98897.81;5070055;28;20052;-83
2021/04/10 09:12:30;;;;;;;4.93;1.33;;;;;;;10.24;64.15;98881.97;5067560;28;20520;-83
2021/04/10 09:15:06;;;;;;;6.88;1.55;;;;;;;10.52;62.87;98904.91;5034430;28;20048;-83
2021/04/10 09:17:54;;;;;;;5.03;1.20;;;;;;;10.83;63.53;98901.91;5069122;28;20060;-83
2021/04/10 09:20:48;;;;;;;2.20;1.42;;;;;;;11.14;62.25;98889.88;5061951;28;20507;-82
2021/04/10 09:23:30;;;;;;;4.78;1.33;;;;;;;11.16;61.77;98876.94;5059370;28;20048;-82
2021/04/10 09:26:12;;;;;;;2.72;1.63;;;;;;;11.34;61.48;98879.16;5069904;28;20062;-83
2021/04/10 09:29:16;;;;;;;3.60;1.38;;;;;;;11.45;60.05;98888.66;5069914;28;20130;-80
2021/04/10 09:31:45;;;;;;;3.78;1.10;;;;;;;11.41;59.41;98895.53;5050749;28;20048;-82
2021/04/10 09:34:48;;;;;;;5.00;1.13;;;;;;;11.51;59.51;98887.88;5050176;28;20110;-81
2021/04/10 09:38:02;;;;;;;2.17;0.95;;;;;;;11.47;59.53;98870.25;5055514;28;20059;-81
2021/04/10 09:40:48;;;;;;;2.50;0.90;;;;;;;11.79;60.04;98881.59;5069108;28;20045;-82
2021/04/10 09:43:22;;;;;;;4.60;1.33;;;;;;;11.56;58.88;98879.97;5070656;28;20527;-82
2021/04/10 09:45:50;;;;;;;4.18;1.35;;;;;;;11.48;59.32;98875.50;5069813;28;20054;-82
2021/04/10 09:48:21;;;;;;;2.88;1.02;;;;;;;11.47;58.31;98894.75;5070526;28;20048;-80
2021/04/10 09:51:18;;;;;;;1.65;1.05;;;;;;;11.54;59.50;98884.75;5069398;28;20055;-82
2021/04/10 09:53:49;;;;;;;1.90;1.13;;;;;;;11.49;59.83;98882.63;5061263;28;20079;-82
2021/04/10 09:56:17;;;;;;;3.00;1.08;;;;;;;10.99;59.88;98873.66;5051784;28;20090;-82
2021/04/10 09:58:55;;;;;;;3.90;1.50;;;;;;;11.16;60.93;98885.91;5068732;28;20078;-82
2021/04/10 10:01:23;;;;;;;4.55;1.38;;;;;;;11.19;61.16;98870.25;5068384;28;20049;-82
2021/04/10 10:03:53;;;;;;;3.70;1.38;;;;;;;11.21;61.06;98870.91;5070259;28;20175;-82
2021/04/10 10:06:33;;;;;;;3.25;1.02;;;;;;;11.23;59.12;98891.44;5063815;28;20060;-83
2021/04/10 10:08:59;;;;;;;;;;;;;;;11.20;59.47;98886.38;5066509;28;20059;-82
2021/04/10 10:11:27;;;;;;;2.53;1.30;;;;;;;11.16;58.76;98880.47;5069464;28;19949;-82
2021/04/10 10:13:56;;;;;;;2.10;1.17;;;;;;;11.16;59.09;98874.19;5063173;28;20386;-82
2021/04/10 10:16:28;;;;;;;5.45;1.30;;;;;;;11.15;59.22;98867.94;5067446;28;20052;-82
2021/04/10 10:18:54;;;;;;;3.60;0.80;;;;;;;11.23;58.97;98885.13;5060501;28;20052;-81
2021/04/10 10:21:22;;;;;;;1.33;1.00;;;;;;;11.23;59.49;98879.69;5068835;28;20065;-82
2021/04/10 10:23:50;;;;;;;2.15;0.90;;;;;;;11.18;60.00;98868.56;5069996;28;20055;-82
2021/04/10 10:26:20;;;;;;;1.27;0.98;;;;;;;11.22;60.49;98872.59;5063854;28;20041;-82
2021/04/10 10:28:50;;;;;;;2.45;1.08;;;;;;;11.27;59.98;98881.00;5067309;28;20044;-82
2021/04/10 10:31:20;;;;;;;2.58;1.35;;;;;;;11.09;59.77;98854.25;5071464;28;20462;-83
2021/04/10 10:34:07;;;;;;;5.40;1.10;;;;;;;11.19;59.99;98860.22;5065048;28;20047;-82
2021/04/10 10:36:38;;;;;;;8.82;1.30;;;;;;;11.25;59.96;98866.75;5072278;28;20045;-82
2021/04/10 10:39:10;;;;;;;2.45;1.02;;;;;;;11.12;60.02;98865.56;5070566;28;20052;-82
2021/04/10 10:41:46;;;;;;;4.20;1.05;;;;;;;11.21;60.50;98871.72;5067860;28;20428;-82
2021/04/10 10:44:13;;;;;;;1.83;1.20;;;;;;;11.15;59.75;98851.59;5063495;28;20135;-82
2021/04/10 10:46:41;;;;;;;3.17;1.50;;;;;;;11.30;59.21;98869.72;5066612;28;20063;-82
2021/04/10 10:49:08;;;;;;;2.38;1.52;;;;;;;11.25;61.00;98859.41;5071105;28;20400;-81
2021/04/10 10:51:37;;;;;;;1.90;1.27;;;;;;;11.36;59.80;98852.59;5069644;28;20060;-81
2021/04/10 10:54:05;;;;;;;5.68;1.50;;;;;;;11.50;60.36;98868.00;5069533;28;20044;-82
2021/04/10 10:56:33;;;;;;;2.33;1.50;;;;;;;11.55;59.64;98864.69;5065863;28;20382;-82
2021/04/10 10:59:00;;;;;;;1.85;1.20;;;;;;;11.52;60.04;98837.84;5069760;28;20045;-82
2021/04/10 11:01:29;;;;;;;5.82;1.23;;;;;;;11.75;60.15;98853.06;5062502;28;20115;-82
2021/04/10 11:04:01;;;;;;;2.20;1.30;;;;;;;11.74;58.42;98854.94;5053640;28;20481;-81
2021/04/10 11:06:30;;;;;;;1.75;1.10;;;;;;;11.69;58.09;98833.75;5069313;28;20127;-81
2021/04/10 11:08:57;;;;;;;2.60;1.38;;;;;;;11.96;56.27;98847.56;5069476;28;20071;-82
2021/04/10 11:11:31;;;;;;;4.20;1.80;;;;;;;12.10;56.36;98828.56;5065799;28;20052;-82
2021/04/10 11:13:58;;;;;;;3.63;1.10;;;;;;;12.23;55.29;98819.59;5067139;28;20445;-82
2021/04/10 11:16:25;;;;;;;1.85;1.25;;;;;;;12.48;55.53;98844.41;5072573;28;20052;-82
2021/04/10 11:18:57;;;;;;;0.95;0.88;;;;;;;12.49;53.81;98811.47;5079820;28;20040;-82
2021/04/10 11:21:26;;;;;;;4.78;1.10;;;;;;;12.74;55.25;98838.19;5087202;28;20508;-82
2021/04/10 11:24:09;;;;;;;4.05;1.30;;;;;;;12.63;53.29;98831.47;5071442;28;20048;-82
2021/04/10 11:26:50;;;;;;;5.80;1.08;;;;;;;12.46;53.27;98822.81;5072985;28;20063;-82
2021/04/10 11:29:23;;;;;;;4.03;0.90;;;;;;;12.57;53.40;98829.56;5067268;28;20045;-82
2021/04/10 11:32:11;;;;;;;2.20;0.90;;;;;;;12.73;52.85;98817.41;5052959;28;20064;-82
2021/04/10 11:34:40;;;;;;;2.40;1.10;;;;;;;13.02;54.06;98813.47;5056810;28;20492;-82
2021/04/10 11:37:08;;;;;;;4.72;1.20;;;;;;;13.12;50.76;98806.75;5052937;28;20064;-81
2021/04/10 11:39:51;;;;;;;5.22;1.77;;;;;;;13.31;52.24;98805.91;5053062;28;20559;-81
2021/04/10 11:42:27;;;;;;;2.58;1.30;;;;;;;13.54;51.12;98810.09;5070556;28;20507;-81
2021/04/10 11:44:53;;;;;;;1.85;0.98;;;;;;;13.72;50.15;98796.59;5072368;28;20481;-81
2021/04/10 11:47:26;;;;;;;3.30;1.25;;;;;;;14.16;51.25;98811.38;5073321;28;20056;-84
2021/04/10 11:50:06;;;;;;;1.73;1.30;;;;;;;13.94;49.16;98808.09;5071605;28;20048;-83
2021/04/10 11:52:33;;;;;;;1.63;1.00;;;;;;;13.97;48.34;98791.28;5066052;28;20045;-79
2021/04/10 11:55:09;;;;;;;2.72;1.00;;;;;;;13.95;48.21;98809.75;5071150;28;20053;-83
2021/04/10 11:58:01;;;;;;;1.83;1.13;;;;;;;13.87;48.27;98804.56;5073994;28;20128;-83
2021/04/10 12:00:28;;;;;;;1.85;1.10;;;;;;;13.69;48.49;98805.22;5067445;28;20487;-83
2021/04/10 12:03:06;;;;;;;2.85;2.25;;;;;;;13.99;48.32;98782.84;5061605;28;20064;-83
2021/04/10 12:05:39;;;;;;;5.57;1.00;;;;;;;14.44;49.03;98785.59;5072433;28;20381;-82